Decoded Metar for KBLU (EMIGRANT GAP in CA, USA) (IATA:BLU) | Meteo·Mobile Aviation Weather
aviador You're here:

KBLU Decoded Metar

EMIGRANT GAP in CA, USA
Report Time2019-01-17 01:21:00
UTC Time2019-01-17 01:32:50
Flight Rules ifr IFR
Wind140° at 09 Gusting to 25 kt
W.Decomp.*RWY 15: 8.1 kt HW 3.9 kt LCW
W.Rank140° ranks 8
Current wind is above 140° avg. (5.1)
Visibility6437 m
Phenomena:Rain
Mist
Clouds:Overcast 006 Hf
Expected CloudBase > 400 ft AGL from Temp-Dew spread
Ceiling600 ft
Temp03°C (ISA -2)
Dew Point02°C (93% RH)
AAT-1.9°C
QNH1010 hPa
Density Alt5,312 ft
Elevation5,279 ft
Report Wrong Elevation
Raw Report
KBLU 170121Z AUTO 14009G25KT 100V170 4SM RA BR OVC006 03/02 A2984=

Extra information for KBLU:More info

Metar Taf Metar & Taf Last 4 Metars F.Rules Stats Wind Profile Meteogram Temp Stats Airport Information Weather charts Add Link Nearby VenuesMetar ALERT Operation Metar Decoded Social comments

AIRNAV info for KBLU